createdAt,value
2022-09-12T00:01:46.972Z,100603.06
2022-09-12T00:04:48.447Z,100598.09
2022-09-12T00:07:49.945Z,100595.66
2022-09-12T00:10:51.532Z,100602.97
2022-09-12T00:13:59.302Z,100596.88
2022-09-12T00:17:01.658Z,100603.47
2022-09-12T00:20:08.710Z,100600.00
2022-09-12T00:23:10.925Z,100593.03
2022-09-12T00:26:13.261Z,100594.84
2022-09-12T00:29:20.463Z,100591.50
2022-09-12T00:32:21.832Z,100592.53
2022-09-12T00:35:23.207Z,100587.38
2022-09-12T00:38:24.590Z,100589.09
2022-09-12T00:41:34.985Z,100583.94
2022-09-12T00:44:45.315Z,100585.66
2022-09-12T00:47:46.725Z,100581.19
2022-09-12T00:50:49.771Z,100575.09
2022-09-12T00:53:54.987Z,100575.25
2022-09-12T00:57:00.658Z,100571.59
2022-09-12T01:00:16.640Z,100570.13
2022-09-12T01:03:22.003Z,100569.25
2022-09-12T01:06:28.401Z,100570.72
2022-09-12T01:09:29.871Z,100559.31
2022-09-12T01:12:33.001Z,100563.84
2022-09-12T01:15:37.456Z,100557.66
2022-09-12T01:18:51.346Z,100562.38
2022-09-12T01:22:25.270Z,100559.03
2022-09-12T01:25:45.129Z,100559.03
2022-09-12T01:29:09.700Z,100561.63
2022-09-12T01:32:24.814Z,100558.34
2022-09-12T01:35:41.800Z,100550.69
2022-09-12T01:38:50.237Z,100543.06
2022-09-12T01:42:00.512Z,100551.09
2022-09-12T01:45:11.433Z,100550.25
2022-09-12T01:48:20.317Z,100550.41
2022-09-12T01:51:28.168Z,100545.09
2022-09-12T01:54:39.849Z,100543.53
2022-09-12T01:57:57.805Z,100550.13
2022-09-12T02:01:03.110Z,100539.81
2022-09-12T02:04:20.798Z,100543.41
2022-09-12T02:07:29.188Z,100534.31
2022-09-12T02:10:34.425Z,100534.56
2022-09-12T02:13:41.257Z,100533.91
2022-09-12T02:16:46.750Z,100542.81
2022-09-12T02:20:06.629Z,100541.88
2022-09-12T02:23:12.049Z,100535.59
2022-09-12T02:26:21.084Z,100533.91
2022-09-12T02:29:24.078Z,100529.34
2022-09-12T02:32:42.184Z,100535.59
2022-09-12T02:35:57.924Z,100526.84
2022-09-12T02:39:00.119Z,100527.78
2022-09-12T02:42:02.898Z,100529.59
2022-09-12T02:45:05.400Z,100528.66
2022-09-12T02:48:22.277Z,100525.28
2022-09-12T02:51:24.000Z,100522.72
2022-09-12T02:54:25.718Z,100519.97
2022-09-12T02:57:27.100Z,100525.47
2022-09-12T03:00:32.721Z,100525.59
2022-09-12T03:03:43.622Z,100517.88
2022-09-12T03:07:03.652Z,100517.19
2022-09-12T03:10:14.248Z,100523.00
2022-09-12T03:13:25.090Z,100516.63
2022-09-12T03:16:53.547Z,100521.25
2022-09-12T03:20:03.417Z,100514.81
2022-09-12T03:23:24.438Z,100516.97
2022-09-12T03:26:31.329Z,100513.88
2022-09-12T03:29:32.945Z,100517.75
2022-09-12T03:32:51.973Z,100518.91
2022-09-12T03:35:53.715Z,100518.22
2022-09-12T03:38:55.649Z,100516.44
2022-09-12T03:41:57.564Z,100520.31
2022-09-12T03:44:59.006Z,100513.63
2022-09-12T03:48:00.537Z,100517.31
2022-09-12T03:51:04.130Z,100506.28
2022-09-12T03:54:06.193Z,100512.13
2022-09-12T03:57:07.570Z,100518.78
2022-09-12T04:00:09.601Z,100518.28
2022-09-12T04:03:19.256Z,100516.28
2022-09-12T04:06:22.193Z,100509.25
2022-09-12T04:09:23.847Z,100508.84
2022-09-12T04:12:25.220Z,100511.63
2022-09-12T04:15:27.622Z,100511.50
2022-09-12T04:18:28.983Z,100509.03
2022-09-12T04:21:31.611Z,100511.09
2022-09-12T04:24:33.427Z,100508.34
2022-09-12T04:27:35.367Z,100506.53
2022-09-12T04:30:37.900Z,100510.81
2022-09-12T04:33:39.667Z,100508.03
2022-09-12T04:36:42.024Z,100509.53
2022-09-12T04:39:43.451Z,100504.63
2022-09-12T04:42:45.220Z,100506.47
2022-09-12T04:45:46.775Z,100504.22
2022-09-12T04:48:52.199Z,100505.72
2022-09-12T04:51:55.973Z,100505.66
2022-09-12T04:54:57.364Z,100504.47
2022-09-12T04:57:58.821Z,100498.94
2022-09-12T05:01:08.040Z,100503.25
2022-09-12T05:04:11.392Z,100504.88
2022-09-12T05:07:12.797Z,100505.03
2022-09-12T05:10:14.572Z,100506.53
2022-09-12T05:13:16.037Z,100509.81
2022-09-12T05:16:18.345Z,100510.91
2022-09-12T05:19:19.817Z,100505.53
2022-09-12T05:22:21.517Z,100504.69
2022-09-12T05:25:23.096Z,100511.69
2022-09-12T05:28:28.743Z,100503.56
2022-09-12T05:31:30.115Z,100510.63
2022-09-12T05:34:31.888Z,100512.16
2022-09-12T05:37:33.969Z,100501.47
2022-09-12T05:40:35.668Z,100498.72
2022-09-12T05:43:40.122Z,100506.38
2022-09-12T05:46:43.595Z,100509.84
2022-09-12T05:49:47.848Z,100507.78
2022-09-12T05:52:50.216Z,100506.47
2022-09-12T05:56:08.997Z,100500.53
2022-09-12T05:59:16.384Z,100510.41
2022-09-12T06:02:18.131Z,100514.97
2022-09-12T06:05:19.547Z,100506.91
2022-09-12T06:08:20.918Z,100516.28
2022-09-12T06:11:25.872Z,100510.47
2022-09-12T06:14:27.297Z,100516.94
2022-09-12T06:17:28.705Z,100519.13
2022-09-12T06:20:30.321Z,100521.34
2022-09-12T06:23:32.413Z,100523.59
2022-09-12T06:26:34.213Z,100526.50
2022-09-12T06:29:35.582Z,100526.03
2022-09-12T06:32:36.949Z,100530.50
2022-09-12T06:35:38.576Z,100531.97
2022-09-12T06:38:40.564Z,100529.97
2022-09-12T06:41:44.166Z,100516.50
2022-09-12T06:44:45.955Z,100506.63
2022-09-12T06:47:47.367Z,100502.75
2022-09-12T06:51:02.370Z,100494.88
2022-09-12T06:54:05.310Z,100494.41
2022-09-12T06:57:07.173Z,100505.47
2022-09-12T07:00:10.049Z,100500.66
2022-09-12T07:03:11.491Z,100512.28
2022-09-12T07:06:14.348Z,100518.53
2022-09-12T07:09:18.823Z,100521.34
2022-09-12T07:12:20.192Z,100519.34
2022-09-12T07:15:21.585Z,100527.91
2022-09-12T07:18:23.593Z,100524.09
2022-09-12T07:21:25.475Z,100533.41
2022-09-12T07:24:26.923Z,100537.41
2022-09-12T07:27:28.318Z,100538.16
2022-09-12T07:30:29.724Z,100540.75
2022-09-12T07:33:31.127Z,100532.94
2022-09-12T07:36:32.707Z,100534.84
2022-09-12T07:39:34.070Z,100530.00
2022-09-12T07:42:35.760Z,100525.38
2022-09-12T07:45:37.351Z,100517.59
2022-09-12T07:48:39.555Z,100520.53
2022-09-12T07:51:41.130Z,100517.75
2022-09-12T07:54:42.520Z,100518.53
2022-09-12T07:57:43.897Z,100511.63
2022-09-12T08:00:45.869Z,100512.94
2022-09-12T08:03:49.629Z,100519.94
2022-09-12T08:06:51.494Z,100529.09
2022-09-12T08:09:53.652Z,100528.94
2022-09-12T08:12:55.025Z,100533.81
2022-09-12T08:16:02.066Z,100526.59
2022-09-12T08:19:04.369Z,100517.44
2022-09-12T08:22:05.801Z,100511.47
2022-09-12T08:25:08.614Z,100502.69
2022-09-12T08:28:10.044Z,100510.63
2022-09-12T08:31:14.269Z,100507.00
2022-09-12T08:34:18.576Z,100514.47
2022-09-12T08:37:19.954Z,100507.41
2022-09-12T08:40:21.404Z,100507.84
2022-09-12T08:43:40.324Z,100508.91
2022-09-12T08:47:00.365Z,100510.16
2022-09-12T08:50:12.547Z,100514.25
2022-09-12T08:53:19.224Z,100499.81
2022-09-12T08:56:20.616Z,100502.66
2022-09-12T08:59:21.994Z,100504.88
2022-09-12T09:02:57.357Z,100495.97
2022-09-12T09:06:32.313Z,100502.78
2022-09-12T09:09:48.153Z,100497.13
2022-09-12T09:13:08.821Z,100495.53
2022-09-12T09:16:30.569Z,100501.00
2022-09-12T09:19:37.862Z,100497.75
2022-09-12T09:23:15.349Z,100508.44
2022-09-12T09:26:30.363Z,100501.66
2022-09-12T09:29:44.085Z,100502.13
2022-09-12T09:32:50.836Z,100507.91
2022-09-12T09:36:02.217Z,100499.59
2022-09-12T09:39:21.920Z,100494.59
2022-09-12T09:42:53.833Z,100501.56
2022-09-12T09:45:57.041Z,100496.56
2022-09-12T09:49:03.166Z,100496.56
2022-09-12T09:52:08.009Z,100497.91
2022-09-12T09:55:17.597Z,100487.47
2022-09-12T09:58:29.932Z,100490.50
2022-09-12T10:01:31.358Z,100485.16
2022-09-12T10:04:41.561Z,100484.41
2022-09-12T10:07:50.397Z,100486.44
2022-09-12T10:11:05.701Z,100472.03
2022-09-12T10:14:39.195Z,100471.66
2022-09-12T10:17:43.973Z,100468.84
2022-09-12T10:20:45.789Z,100468.97
2022-09-12T10:23:51.026Z,100474.94
2022-09-12T10:26:57.663Z,100467.16
2022-09-12T10:30:29.085Z,100464.41
2022-09-12T10:33:41.937Z,100459.47
2022-09-12T10:36:43.367Z,100458.38
2022-09-12T10:39:53.699Z,100456.31
2022-09-12T10:42:57.856Z,100451.94
2022-09-12T10:46:20.156Z,100449.72
2022-09-12T10:49:31.758Z,100456.34
2022-09-12T10:52:33.126Z,100448.59
2022-09-12T10:55:35.438Z,100449.81
2022-09-12T10:58:46.853Z,100439.91
2022-09-12T11:01:55.674Z,100437.16
2022-09-12T11:05:37.198Z,100429.88
2022-09-12T11:09:01.509Z,100433.28
2022-09-12T11:12:11.524Z,100430.63
2022-09-12T11:15:28.010Z,100422.03
2022-09-12T11:19:03.702Z,100413.41
2022-09-12T11:22:39.502Z,100411.84
2022-09-12T11:25:52.680Z,100410.44
2022-09-12T11:29:34.786Z,100406.91
2022-09-12T11:33:01.394Z,100403.88
2022-09-12T11:36:07.809Z,100400.47
2022-09-12T11:39:15.448Z,100395.94
2022-09-12T11:42:22.517Z,100401.94
2022-09-12T11:45:32.537Z,100394.31
2022-09-12T11:48:46.595Z,100401.09
2022-09-12T11:51:57.529Z,100383.50
2022-09-12T11:55:11.188Z,100383.50
2022-09-12T11:58:12.916Z,100383.53
2022-09-12T12:01:27.407Z,100387.75
2022-09-12T12:04:41.271Z,100391.63
2022-09-12T12:08:06.425Z,100390.34
2022-09-12T12:11:26.889Z,100373.28
2022-09-12T12:14:44.475Z,100373.59
2022-09-12T12:17:59.327Z,100367.34
2022-09-12T12:21:39.981Z,100358.81
2022-09-12T12:24:57.488Z,100359.38
2022-09-12T12:28:02.190Z,100355.66
2022-09-12T12:31:05.691Z,100348.22
2022-09-12T12:34:22.292Z,100337.88
2022-09-12T12:37:29.235Z,100348.09
2022-09-12T12:40:31.080Z,100336.13
2022-09-12T12:43:32.640Z,100331.84
2022-09-12T12:46:38.287Z,100321.16
2022-09-12T12:49:39.810Z,100325.53
2022-09-12T12:53:03.422Z,100312.94
2022-09-12T12:56:05.239Z,100317.19
2022-09-12T12:59:21.001Z,100317.25
2022-09-12T13:02:33.469Z,100314.50
2022-09-12T13:05:47.198Z,100311.75
2022-09-12T13:09:00.046Z,100310.28
2022-09-12T13:12:12.274Z,100293.84
2022-09-12T13:15:36.871Z,100295.13
2022-09-12T13:18:47.896Z,100290.03
2022-09-12T13:22:15.523Z,100283.81
2022-09-12T13:25:19.981Z,100297.41
2022-09-12T13:28:21.547Z,100284.41
2022-09-12T13:31:26.123Z,100280.28
2022-09-12T13:34:32.756Z,100281.53
2022-09-12T13:37:49.729Z,100277.88
2022-09-12T13:41:15.040Z,100271.59
2022-09-12T13:44:19.929Z,100272.97
2022-09-12T13:47:30.926Z,100267.19
2022-09-12T13:50:41.210Z,100263.47
2022-09-12T13:53:46.151Z,100253.22
2022-09-12T13:56:49.133Z,100257.38
2022-09-12T13:59:55.365Z,100247.28
2022-09-12T14:03:16.764Z,100245.03
2022-09-12T14:06:18.899Z,100233.59
2022-09-12T14:09:53.309Z,100235.25
2022-09-12T14:12:57.195Z,100242.06
2022-09-12T14:15:59.688Z,100238.09
2022-09-12T14:19:01.768Z,100227.25
2022-09-12T14:22:03.415Z,100224.59
2022-09-12T14:25:05.481Z,100225.63
2022-09-12T14:28:11.669Z,100221.69
2022-09-12T14:31:16.720Z,100224.91
2022-09-12T14:34:19.818Z,100216.50
2022-09-12T14:37:21.199Z,100225.00
2022-09-12T14:40:23.876Z,100213.50
2022-09-12T14:43:27.542Z,100219.41
2022-09-12T14:46:40.279Z,100220.59
2022-09-12T14:49:42.396Z,100209.38
2022-09-12T14:52:44.187Z,100208.34
2022-09-12T14:55:52.959Z,100204.13
2022-09-12T14:59:26.072Z,100203.09
2022-09-12T15:02:27.471Z,100192.75
2022-09-12T15:05:29.420Z,100200.53
2022-09-12T15:08:32.115Z,100185.31
2022-09-12T15:11:33.795Z,100179.56
2022-09-12T15:14:35.278Z,100172.47
2022-09-12T15:17:36.915Z,100170.41
2022-09-12T15:20:41.035Z,100167.00
2022-09-12T15:23:50.698Z,100164.44
2022-09-12T15:26:52.576Z,100161.19
2022-09-12T15:29:54.137Z,100161.84
2022-09-12T15:32:55.593Z,100161.13
2022-09-12T15:35:57.013Z,100155.00
2022-09-12T15:38:58.492Z,100155.69
2022-09-12T15:41:59.888Z,100150.34
2022-09-12T15:45:02.700Z,100142.84
2022-09-12T15:48:04.426Z,100141.22
2022-09-12T15:51:15.455Z,100141.59
2022-09-12T15:54:18.046Z,100138.34
2022-09-12T15:57:19.498Z,100144.63
2022-09-12T16:00:21.231Z,100131.94
2022-09-12T16:03:25.698Z,100130.06
2022-09-12T16:06:33.576Z,100134.13
2022-09-12T16:09:37.967Z,100129.41
2022-09-12T16:12:39.337Z,100130.47
2022-09-12T16:15:40.835Z,100132.13
2022-09-12T16:18:42.751Z,100120.44
2022-09-12T16:21:44.222Z,100121.41
2022-09-12T16:24:45.617Z,100131.38
2022-09-12T16:27:47.078Z,100128.94
2022-09-12T16:30:56.366Z,100118.44
2022-09-12T16:33:57.784Z,100119.63
2022-09-12T16:36:59.165Z,100107.03
2022-09-12T16:40:01.402Z,100111.94
2022-09-12T16:43:02.802Z,100116.59
2022-09-12T16:46:10.163Z,100112.31
2022-09-12T16:49:12.006Z,100104.53
2022-09-12T16:52:16.412Z,100103.47
2022-09-12T16:55:17.774Z,100112.56
2022-09-12T16:58:19.138Z,100107.25
2022-09-12T17:01:23.262Z,100105.03
2022-09-12T17:04:24.656Z,100105.09
2022-09-12T17:07:26.046Z,100102.88
2022-09-12T17:10:27.906Z,100107.16
2022-09-12T17:13:52.882Z,100113.09
2022-09-12T17:16:52.472Z,100114.47
2022-09-12T17:19:53.876Z,100112.84
2022-09-12T17:22:55.261Z,100119.75
2022-09-12T17:25:56.660Z,100118.25
2022-09-12T17:28:58.299Z,100120.44
2022-09-12T17:31:59.732Z,100116.34
2022-09-12T17:35:01.083Z,100110.97
2022-09-12T17:38:02.655Z,100114.59
2022-09-12T17:41:09.007Z,100112.19
2022-09-12T17:44:15.042Z,100107.19
2022-09-12T17:47:16.492Z,100107.34
2022-09-12T17:50:31.343Z,100109.81
2022-09-12T17:53:34.493Z,100106.75
2022-09-12T17:56:37.027Z,100112.13
2022-09-12T17:59:38.425Z,100110.03
2022-09-12T18:02:40.082Z,100114.59
2022-09-12T18:05:48.605Z,100114.13
2022-09-12T18:08:50.281Z,100115.34
2022-09-12T18:11:52.460Z,100124.28
2022-09-12T18:14:53.825Z,100125.81
2022-09-12T18:17:55.185Z,100132.94
2022-09-12T18:20:56.557Z,100131.94
2022-09-12T18:24:01.318Z,100127.94
2022-09-12T18:27:03.868Z,100125.47
2022-09-12T18:30:20.634Z,100122.31
2022-09-12T18:33:24.251Z,100121.00
2022-09-12T18:36:26.051Z,100124.75
2022-09-12T18:39:28.025Z,100127.78
2022-09-12T18:42:29.568Z,100136.97
2022-09-12T18:45:31.545Z,100127.13
2022-09-12T18:48:33.890Z,100134.78
2022-09-12T18:51:36.981Z,100141.88
2022-09-12T18:54:38.476Z,100141.28
2022-09-12T18:57:41.284Z,100146.44
2022-09-12T19:00:44.573Z,100134.25
2022-09-12T19:03:46.385Z,100134.38
2022-09-12T19:06:48.332Z,100123.94
2022-09-12T19:09:50.282Z,100124.91
2022-09-12T19:12:51.705Z,100130.03
2022-09-12T19:15:53.083Z,100143.28
2022-09-12T19:18:55.833Z,100136.59
2022-09-12T19:21:57.295Z,100132.09
2022-09-12T19:24:58.668Z,100130.28
2022-09-12T19:28:00.160Z,100129.66
2022-09-12T19:31:06.614Z,100128.19
2022-09-12T19:34:10.455Z,100126.97
2022-09-12T19:37:11.913Z,100124.94
2022-09-12T19:40:13.363Z,100131.88
2022-09-12T19:43:14.768Z,100123.59
2022-09-12T19:46:18.136Z,100123.84
2022-09-12T19:49:19.571Z,100123.38
2022-09-12T19:52:20.960Z,100121.06
2022-09-12T19:55:22.383Z,100120.81
2022-09-12T19:58:23.748Z,100116.78
2022-09-12T20:01:29.462Z,100111.78
2022-09-12T20:04:33.963Z,100104.72
2022-09-12T20:07:35.307Z,100114.84
2022-09-12T20:10:37.275Z,100114.22
2022-09-12T20:13:38.661Z,100106.44
2022-09-12T20:16:40.111Z,100100.72
2022-09-12T20:19:41.479Z,100088.28
2022-09-12T20:22:42.941Z,100090.25
2022-09-12T20:25:44.404Z,100094.28
2022-09-12T20:28:45.859Z,100096.94
2022-09-12T20:31:47.413Z,100082.91
2022-09-12T20:34:48.792Z,100075.84
2022-09-12T20:37:50.332Z,100079.47
2022-09-12T20:40:51.758Z,100082.66
2022-09-12T20:43:54.715Z,100075.22
2022-09-12T20:46:56.899Z,100086.03
2022-09-12T20:49:58.433Z,100080.44
2022-09-12T20:53:01.550Z,100082.13
2022-09-12T20:56:05.267Z,100077.50
2022-09-12T20:59:06.939Z,100069.97
2022-09-12T21:02:15.309Z,100072.75
2022-09-12T21:05:17.069Z,100080.06
2022-09-12T21:08:18.427Z,100075.88
2022-09-12T21:11:20.180Z,100069.94
2022-09-12T21:14:21.852Z,100071.75
2022-09-12T21:17:23.264Z,100070.41
2022-09-12T21:20:24.888Z,100069.66
2022-09-12T21:23:27.495Z,100062.63
2022-09-12T21:26:29.747Z,100070.88
2022-09-12T21:29:31.546Z,100066.22
2022-09-12T21:32:35.890Z,100054.56
2022-09-12T21:35:37.931Z,100049.28
2022-09-12T21:38:39.477Z,100038.19
2022-09-12T21:41:40.933Z,100046.31
2022-09-12T21:44:42.327Z,100053.41
2022-09-12T21:47:44.247Z,100048.53
2022-09-12T21:50:50.582Z,100052.41
2022-09-12T21:53:52.003Z,100062.88
2022-09-12T21:56:53.365Z,100057.53
2022-09-12T21:59:54.721Z,100056.03
2022-09-12T22:02:57.477Z,100051.44
2022-09-12T22:06:01.410Z,100043.66
2022-09-12T22:09:04.385Z,100036.94
2022-09-12T22:12:06.359Z,100027.34
2022-09-12T22:15:29.292Z,100025.75
2022-09-12T22:18:33.013Z,100032.44
2022-09-12T22:21:34.599Z,100022.88
2022-09-12T22:24:36.115Z,100022.56
2022-09-12T22:27:39.025Z,100037.97
2022-09-12T22:30:42.891Z,100051.78
2022-09-12T22:33:45.614Z,100058.69
2022-09-12T22:36:47.921Z,100052.50
2022-09-12T22:39:49.332Z,100050.81
2022-09-12T22:42:53.917Z,100046.53
2022-09-12T22:45:55.302Z,100046.53
2022-09-12T22:48:56.676Z,100046.13
2022-09-12T22:51:58.046Z,100039.31
2022-09-12T22:54:59.472Z,100054.72
2022-09-12T22:58:00.872Z,100041.06
2022-09-12T23:01:02.671Z,100031.25
2022-09-12T23:04:04.927Z,100035.28
2022-09-12T23:07:06.556Z,100024.94
2022-09-12T23:10:08.301Z,100031.88
2022-09-12T23:13:10.056Z,100029.53
2022-09-12T23:16:16.222Z,100024.19
2022-09-12T23:19:17.718Z,100027.19
2022-09-12T23:22:19.832Z,100020.25
2022-09-12T23:25:22.751Z,100021.41
2022-09-12T23:28:24.171Z,100026.44
2022-09-12T23:31:31.011Z,100024.75
2022-09-12T23:34:33.437Z,100017.81
2022-09-12T23:37:34.810Z,100015.03
2022-09-12T23:40:36.164Z,100015.03
2022-09-12T23:43:37.753Z,100014.63
2022-09-12T23:46:39.115Z,100020.28
2022-09-12T23:49:40.505Z,100024.03
2022-09-12T23:52:41.910Z,100023.41
2022-09-12T23:55:44.782Z,100028.94
2022-09-12T23:58:46.266Z,100027.03
